sensor_id;sensor_type;location;lat;lon;timestamp;temperature;humidity
15172;DHT22;7686;52.184;9.280;2023-04-24T00:01:06;28.00;32.50
15172;DHT22;7686;52.184;9.280;2023-04-24T00:03:34;28.00;32.50
15172;DHT22;7686;52.184;9.280;2023-04-24T00:06:01;27.90;32.40
15172;DHT22;7686;52.184;9.280;2023-04-24T00:08:29;27.90;32.50
15172;DHT22;7686;52.184;9.280;2023-04-24T00:10:55;27.90;32.40
15172;DHT22;7686;52.184;9.280;2023-04-24T00:13:22;27.90;32.50
15172;DHT22;7686;52.184;9.280;2023-04-24T00:15:48;27.90;32.50
15172;DHT22;7686;52.184;9.280;2023-04-24T00:18:15;27.90;32.50
15172;DHT22;7686;52.184;9.280;2023-04-24T00:20:42;27.90;32.50
15172;DHT22;7686;52.184;9.280;2023-04-24T00:23:10;27.90;32.50
15172;DHT22;7686;52.184;9.280;2023-04-24T00:25:36;27.90;32.50
15172;DHT22;7686;52.184;9.280;2023-04-24T00:28:03;27.90;32.50
15172;DHT22;7686;52.184;9.280;2023-04-24T00:30:29;27.90;32.50
15172;DHT22;7686;52.184;9.280;2023-04-24T00:32:57;27.80;32.40
15172;DHT22;7686;52.184;9.280;2023-04-24T00:35:23;27.80;32.50
15172;DHT22;7686;52.184;9.280;2023-04-24T00:37:50;27.90;32.50
15172;DHT22;7686;52.184;9.280;2023-04-24T00:40:17;27.80;32.40
15172;DHT22;7686;52.184;9.280;2023-04-24T00:42:43;27.90;32.50
15172;DHT22;7686;52.184;9.280;2023-04-24T00:45:11;27.80;32.40
15172;DHT22;7686;52.184;9.280;2023-04-24T00:47:38;27.80;32.50
15172;DHT22;7686;52.184;9.280;2023-04-24T00:50:06;27.80;32.40
15172;DHT22;7686;52.184;9.280;2023-04-24T00:52:33;27.80;32.50
15172;DHT22;7686;52.184;9.280;2023-04-24T00:54:59;27.80;32.50
15172;DHT22;7686;52.184;9.280;2023-04-24T00:57:26;27.80;32.50
15172;DHT22;7686;52.184;9.280;2023-04-24T00:59:53;27.80;32.50
15172;DHT22;7686;52.184;9.280;2023-04-24T01:02:21;27.80;32.50
15172;DHT22;7686;52.184;9.280;2023-04-24T01:04:52;27.70;32.40
15172;DHT22;7686;52.184;9.280;2023-04-24T01:07:20;27.70;32.40
15172;DHT22;7686;52.184;9.280;2023-04-24T01:09:48;27.70;32.40
15172;DHT22;7686;52.184;9.280;2023-04-24T01:12:17;27.70;32.50
15172;DHT22;7686;52.184;9.280;2023-04-24T01:14:44;27.70;32.40
15172;DHT22;7686;52.184;9.280;2023-04-24T01:17:11;27.70;33.20
15172;DHT22;7686;52.184;9.280;2023-04-24T01:19:38;27.70;32.50
15172;DHT22;7686;52.184;9.280;2023-04-24T01:22:13;27.70;32.40
15172;DHT22;7686;52.184;9.280;2023-04-24T01:24:41;27.70;32.50
15172;DHT22;7686;52.184;9.280;2023-04-24T01:27:09;27.60;32.40
15172;DHT22;7686;52.184;9.280;2023-04-24T01:29:36;27.70;33.20
15172;DHT22;7686;52.184;9.280;2023-04-24T01:32:03;27.60;32.40
15172;DHT22;7686;52.184;9.280;2023-04-24T01:34:31;27.60;32.50
15172;DHT22;7686;52.184;9.280;2023-04-24T01:36:58;27.70;32.50
15172;DHT22;7686;52.184;9.280;2023-04-24T01:39:24;27.60;32.50
15172;DHT22;7686;52.184;9.280;2023-04-24T01:41:52;27.60;32.50
15172;DHT22;7686;52.184;9.280;2023-04-24T01:44:20;27.60;32.50
15172;DHT22;7686;52.184;9.280;2023-04-24T01:46:47;27.60;32.50
15172;DHT22;7686;52.184;9.280;2023-04-24T01:49:13;27.60;32.50
15172;DHT22;7686;52.184;9.280;2023-04-24T01:51:40;27.60;32.50
15172;DHT22;7686;52.184;9.280;2023-04-24T01:54:07;27.60;32.50
15172;DHT22;7686;52.184;9.280;2023-04-24T01:56:34;27.60;32.50
15172;DHT22;7686;52.184;9.280;2023-04-24T01:59:03;27.60;32.60
15172;DHT22;7686;52.184;9.280;2023-04-24T02:01:34;27.60;32.50
15172;DHT22;7686;52.184;9.280;2023-04-24T02:04:06;27.50;32.50
15172;DHT22;7686;52.184;9.280;2023-04-24T02:06:33;27.50;32.60
15172;DHT22;7686;52.184;9.280;2023-04-24T02:09:00;27.50;32.50
15172;DHT22;7686;52.184;9.280;2023-04-24T02:11:27;27.50;32.50
15172;DHT22;7686;52.184;9.280;2023-04-24T02:13:53;27.50;32.50
15172;DHT22;7686;52.184;9.280;2023-04-24T02:16:20;27.50;32.60
15172;DHT22;7686;52.184;9.280;2023-04-24T02:18:47;27.50;32.60
15172;DHT22;7686;52.184;9.280;2023-04-24T02:21:14;27.50;32.60
15172;DHT22;7686;52.184;9.280;2023-04-24T02:23:40;27.50;32.60
15172;DHT22;7686;52.184;9.280;2023-04-24T02:26:07;27.50;32.60
15172;DHT22;7686;52.184;9.280;2023-04-24T02:28:34;27.50;33.30
15172;DHT22;7686;52.184;9.280;2023-04-24T02:31:00;27.40;32.50
15172;DHT22;7686;52.184;9.280;2023-04-24T02:33:27;27.40;32.50
15172;DHT22;7686;52.184;9.280;2023-04-24T02:35:54;27.40;32.50
15172;DHT22;7686;52.184;9.280;2023-04-24T02:38:20;27.50;32.60
15172;DHT22;7686;52.184;9.280;2023-04-24T02:40:47;27.40;32.50
15172;DHT22;7686;52.184;9.280;2023-04-24T02:43:13;27.40;32.60
15172;DHT22;7686;52.184;9.280;2023-04-24T02:45:40;27.40;32.60
15172;DHT22;7686;52.184;9.280;2023-04-24T02:48:07;27.40;32.60
15172;DHT22;7686;52.184;9.280;2023-04-24T02:50:33;27.40;32.50
15172;DHT22;7686;52.184;9.280;2023-04-24T02:53:00;27.40;32.50
15172;DHT22;7686;52.184;9.280;2023-04-24T02:55:26;27.40;32.60
15172;DHT22;7686;52.184;9.280;2023-04-24T02:57:53;27.40;32.60
15172;DHT22;7686;52.184;9.280;2023-04-24T03:00:20;27.40;32.60
15172;DHT22;7686;52.184;9.280;2023-04-24T03:02:47;27.30;32.50
15172;DHT22;7686;52.184;9.280;2023-04-24T03:05:14;27.40;32.60
15172;DHT22;7686;52.184;9.280;2023-04-24T03:07:41;27.40;32.60
15172;DHT22;7686;52.184;9.280;2023-04-24T03:10:08;27.30;32.50
15172;DHT22;7686;52.184;9.280;2023-04-24T03:12:34;27.30;32.50
15172;DHT22;7686;52.184;9.280;2023-04-24T03:15:01;27.30;32.60
15172;DHT22;7686;52.184;9.280;2023-04-24T03:17:28;27.30;32.50
15172;DHT22;7686;52.184;9.280;2023-04-24T03:19:55;27.30;32.60
15172;DHT22;7686;52.184;9.280;2023-04-24T03:22:21;27.30;32.60
15172;DHT22;7686;52.184;9.280;2023-04-24T03:24:48;27.30;32.60
15172;DHT22;7686;52.184;9.280;2023-04-24T03:27:14;27.30;32.60
15172;DHT22;7686;52.184;9.280;2023-04-24T03:29:41;27.30;32.50
15172;DHT22;7686;52.184;9.280;2023-04-24T03:32:08;27.40;32.60
15172;DHT22;7686;52.184;9.280;2023-04-24T03:34:35;27.30;32.60
15172;DHT22;7686;52.184;9.280;2023-04-24T03:37:01;27.30;32.60
15172;DHT22;7686;52.184;9.280;2023-04-24T03:39:28;27.30;32.60
15172;DHT22;7686;52.184;9.280;2023-04-24T03:41:55;27.30;32.50
15172;DHT22;7686;52.184;9.280;2023-04-24T03:44:22;27.30;32.60
15172;DHT22;7686;52.184;9.280;2023-04-24T03:46:48;27.30;32.70
15172;DHT22;7686;52.184;9.280;2023-04-24T03:49:15;27.30;32.60
15172;DHT22;7686;52.184;9.280;2023-04-24T03:51:42;27.30;32.70
15172;DHT22;7686;52.184;9.280;2023-04-24T03:54:08;27.30;32.60
15172;DHT22;7686;52.184;9.280;2023-04-24T03:56:35;27.30;32.60
15172;DHT22;7686;52.184;9.280;2023-04-24T03:59:01;27.40;32.70
15172;DHT22;7686;52.184;9.280;2023-04-24T04:01:28;27.40;32.70
15172;DHT22;7686;52.184;9.280;2023-04-24T04:03:55;27.40;32.70
15172;DHT22;7686;52.184;9.280;2023-04-24T04:06:22;27.40;32.60
15172;DHT22;7686;52.184;9.280;2023-04-24T04:08:49;27.50;32.70
15172;DHT22;7686;52.184;9.280;2023-04-24T04:11:15;27.50;32.60
15172;DHT22;7686;52.184;9.280;2023-04-24T04:13:42;27.50;32.60
15172;DHT22;7686;52.184;9.280;2023-04-24T04:16:08;27.60;32.60
15172;DHT22;7686;52.184;9.280;2023-04-24T04:18:35;27.60;32.60
15172;DHT22;7686;52.184;9.280;2023-04-24T04:21:02;27.60;32.60
15172;DHT22;7686;52.184;9.280;2023-04-24T04:23:29;27.70;32.60
15172;DHT22;7686;52.184;9.280;2023-04-24T04:25:56;27.80;32.60
15172;DHT22;7686;52.184;9.280;2023-04-24T04:28:22;27.70;32.50
15172;DHT22;7686;52.184;9.280;2023-04-24T04:30:50;27.80;33.20
15172;DHT22;7686;52.184;9.280;2023-04-24T04:33:21;27.80;32.40
15172;DHT22;7686;52.184;9.280;2023-04-24T04:35:48;27.90;32.60
15172;DHT22;7686;52.184;9.280;2023-04-24T04:38:16;27.90;32.50
15172;DHT22;7686;52.184;9.280;2023-04-24T04:40:43;27.90;32.50
15172;DHT22;7686;52.184;9.280;2023-04-24T04:43:10;27.90;32.50
15172;DHT22;7686;52.184;9.280;2023-04-24T04:45:37;28.00;32.50
15172;DHT22;7686;52.184;9.280;2023-04-24T04:48:05;28.00;32.50
15172;DHT22;7686;52.184;9.280;2023-04-24T04:50:33;28.10;32.60
15172;DHT22;7686;52.184;9.280;2023-04-24T04:53:00;28.00;32.40
15172;DHT22;7686;52.184;9.280;2023-04-24T04:55:27;28.10;32.50
15172;DHT22;7686;52.184;9.280;2023-04-24T04:57:54;28.10;32.40
15172;DHT22;7686;52.184;9.280;2023-04-24T05:00:22;28.10;32.50
15172;DHT22;7686;52.184;9.280;2023-04-24T05:02:51;28.20;32.50
15172;DHT22;7686;52.184;9.280;2023-04-24T05:05:18;28.20;32.40
15172;DHT22;7686;52.184;9.280;2023-04-24T05:07:45;28.20;32.40
15172;DHT22;7686;52.184;9.280;2023-04-24T05:10:12;28.20;32.40
15172;DHT22;7686;52.184;9.280;2023-04-24T05:12:38;28.20;32.40
15172;DHT22;7686;52.184;9.280;2023-04-24T05:15:05;28.30;32.40
15172;DHT22;7686;52.184;9.280;2023-04-24T05:17:32;28.30;32.40
15172;DHT22;7686;52.184;9.280;2023-04-24T05:19:59;28.30;32.40
15172;DHT22;7686;52.184;9.280;2023-04-24T05:22:25;28.30;32.40
15172;DHT22;7686;52.184;9.280;2023-04-24T05:24:52;28.30;32.40
15172;DHT22;7686;52.184;9.280;2023-04-24T05:27:19;28.30;32.40
15172;DHT22;7686;52.184;9.280;2023-04-24T05:29:47;28.30;32.40
15172;DHT22;7686;52.184;9.280;2023-04-24T05:32:13;28.40;32.40
15172;DHT22;7686;52.184;9.280;2023-04-24T05:34:40;28.40;32.40
15172;DHT22;7686;52.184;9.280;2023-04-24T05:37:06;28.40;32.30
15172;DHT22;7686;52.184;9.280;2023-04-24T05:39:36;28.40;32.30
15172;DHT22;7686;52.184;9.280;2023-04-24T05:42:03;28.40;32.30
15172;DHT22;7686;52.184;9.280;2023-04-24T05:44:31;28.40;32.30
15172;DHT22;7686;52.184;9.280;2023-04-24T05:46:57;28.50;32.30
15172;DHT22;7686;52.184;9.280;2023-04-24T05:49:24;28.50;32.30
15172;DHT22;7686;52.184;9.280;2023-04-24T05:51:51;28.50;32.30
15172;DHT22;7686;52.184;9.280;2023-04-24T05:54:17;28.50;32.20
15172;DHT22;7686;52.184;9.280;2023-04-24T05:56:44;28.50;32.20
15172;DHT22;7686;52.184;9.280;2023-04-24T05:59:10;28.50;32.10
15172;DHT22;7686;52.184;9.280;2023-04-24T06:01:37;28.50;32.10
15172;DHT22;7686;52.184;9.280;2023-04-24T06:04:04;28.50;32.10
15172;DHT22;7686;52.184;9.280;2023-04-24T06:06:31;28.50;32.10
15172;DHT22;7686;52.184;9.280;2023-04-24T06:08:58;28.50;32.10
15172;DHT22;7686;52.184;9.280;2023-04-24T06:11:25;28.50;32.10
15172;DHT22;7686;52.184;9.280;2023-04-24T06:13:52;28.50;32.10
15172;DHT22;7686;52.184;9.280;2023-04-24T06:16:18;28.50;32.10
15172;DHT22;7686;52.184;9.280;2023-04-24T06:18:45;28.50;32.30
15172;DHT22;7686;52.184;9.280;2023-04-24T06:21:13;28.50;32.10
15172;DHT22;7686;52.184;9.280;2023-04-24T06:23:40;28.50;32.10
15172;DHT22;7686;52.184;9.280;2023-04-24T06:26:07;28.50;32.10
15172;DHT22;7686;52.184;9.280;2023-04-24T06:28:33;28.50;32.10
15172;DHT22;7686;52.184;9.280;2023-04-24T06:31:00;28.50;32.10
15172;DHT22;7686;52.184;9.280;2023-04-24T06:33:27;28.50;32.10
15172;DHT22;7686;52.184;9.280;2023-04-24T06:35:54;28.50;32.00
15172;DHT22;7686;52.184;9.280;2023-04-24T06:38:20;28.50;32.00
15172;DHT22;7686;52.184;9.280;2023-04-24T06:40:47;28.50;32.00
15172;DHT22;7686;52.184;9.280;2023-04-24T06:43:14;28.70;32.20
15172;DHT22;7686;52.184;9.280;2023-04-24T06:45:41;28.50;32.00
15172;DHT22;7686;52.184;9.280;2023-04-24T06:48:10;28.50;32.00
15172;DHT22;7686;52.184;9.280;2023-04-24T06:50:36;28.50;32.00
15172;DHT22;7686;52.184;9.280;2023-04-24T06:53:03;28.50;31.90
15172;DHT22;7686;52.184;9.280;2023-04-24T06:55:29;28.50;31.90
15172;DHT22;7686;52.184;9.280;2023-04-24T06:57:56;28.50;31.90
15172;DHT22;7686;52.184;9.280;2023-04-24T07:00:23;28.50;31.90
15172;DHT22;7686;52.184;9.280;2023-04-24T07:02:50;28.50;31.90
15172;DHT22;7686;52.184;9.280;2023-04-24T07:05:17;28.50;32.00
15172;DHT22;7686;52.184;9.280;2023-04-24T07:07:47;28.50;31.90
15172;DHT22;7686;52.184;9.280;2023-04-24T07:10:13;28.50;32.00
15172;DHT22;7686;52.184;9.280;2023-04-24T07:12:40;28.50;32.00
15172;DHT22;7686;52.184;9.280;2023-04-24T07:15:07;28.50;32.00
15172;DHT22;7686;52.184;9.280;2023-04-24T07:17:34;28.50;32.00
15172;DHT22;7686;52.184;9.280;2023-04-24T07:20:01;28.50;32.00
15172;DHT22;7686;52.184;9.280;2023-04-24T07:22:28;28.50;32.00
15172;DHT22;7686;52.184;9.280;2023-04-24T07:24:54;28.60;32.00
15172;DHT22;7686;52.184;9.280;2023-04-24T07:27:21;28.50;32.00
15172;DHT22;7686;52.184;9.280;2023-04-24T07:29:48;28.50;31.90
15172;DHT22;7686;52.184;9.280;2023-04-24T07:32:15;28.50;31.90
15172;DHT22;7686;52.184;9.280;2023-04-24T07:34:41;28.50;31.90
15172;DHT22;7686;52.184;9.280;2023-04-24T07:37:08;28.50;31.90
15172;DHT22;7686;52.184;9.280;2023-04-24T07:39:34;28.60;32.00
15172;DHT22;7686;52.184;9.280;2023-04-24T07:42:01;28.60;32.00
15172;DHT22;7686;52.184;9.280;2023-04-24T07:44:28;28.60;32.00
15172;DHT22;7686;52.184;9.280;2023-04-24T07:46:55;28.60;32.00
15172;DHT22;7686;52.184;9.280;2023-04-24T07:49:23;28.60;32.00
15172;DHT22;7686;52.184;9.280;2023-04-24T07:51:49;28.60;32.00
15172;DHT22;7686;52.184;9.280;2023-04-24T07:54:16;28.60;32.00
15172;DHT22;7686;52.184;9.280;2023-04-24T07:56:43;28.50;32.10
15172;DHT22;7686;52.184;9.280;2023-04-24T07:59:11;28.60;32.00
15172;DHT22;7686;52.184;9.280;2023-04-24T08:01:37;28.60;32.10
15172;DHT22;7686;52.184;9.280;2023-04-24T08:04:04;28.60;32.10
15172;DHT22;7686;52.184;9.280;2023-04-24T08:06:31;28.60;32.10
15172;DHT22;7686;52.184;9.280;2023-04-24T08:08:59;28.60;32.10
15172;DHT22;7686;52.184;9.280;2023-04-24T08:11:26;28.50;32.10
15172;DHT22;7686;52.184;9.280;2023-04-24T08:13:53;28.50;32.10
15172;DHT22;7686;52.184;9.280;2023-04-24T08:16:21;28.60;32.20
15172;DHT22;7686;52.184;9.280;2023-04-24T08:18:48;28.50;32.10
15172;DHT22;7686;52.184;9.280;2023-04-24T08:21:14;28.50;32.10
15172;DHT22;7686;52.184;9.280;2023-04-24T08:23:43;28.50;32.10
15172;DHT22;7686;52.184;9.280;2023-04-24T08:26:10;28.60;32.20
15172;DHT22;7686;52.184;9.280;2023-04-24T08:28:37;28.50;32.00
15172;DHT22;7686;52.184;9.280;2023-04-24T08:31:04;28.50;32.00
15172;DHT22;7686;52.184;9.280;2023-04-24T08:33:31;28.50;32.00
15172;DHT22;7686;52.184;9.280;2023-04-24T08:36:04;28.50;32.10
15172;DHT22;7686;52.184;9.280;2023-04-24T08:38:31;28.50;32.00
15172;DHT22;7686;52.184;9.280;2023-04-24T08:41:00;28.50;32.00
15172;DHT22;7686;52.184;9.280;2023-04-24T08:43:27;28.50;32.00
15172;DHT22;7686;52.184;9.280;2023-04-24T08:45:56;28.50;32.00
15172;DHT22;7686;52.184;9.280;2023-04-24T08:48:23;28.50;32.10
15172;DHT22;7686;52.184;9.280;2023-04-24T08:50:58;28.50;32.00
15172;DHT22;7686;52.184;9.280;2023-04-24T08:53:26;28.40;32.00
15172;DHT22;7686;52.184;9.280;2023-04-24T08:55:54;28.40;32.00
15172;DHT22;7686;52.184;9.280;2023-04-24T08:58:22;28.60;32.10
15172;DHT22;7686;52.184;9.280;2023-04-24T09:00:52;28.40;32.00
15172;DHT22;7686;52.184;9.280;2023-04-24T09:03:21;28.40;32.00
15172;DHT22;7686;52.184;9.280;2023-04-24T09:05:49;28.40;32.00
15172;DHT22;7686;52.184;9.280;2023-04-24T09:08:18;28.40;32.10
15172;DHT22;7686;52.184;9.280;2023-04-24T09:10:45;28.40;32.00
15172;DHT22;7686;52.184;9.280;2023-04-24T09:13:15;28.40;32.00
15172;DHT22;7686;52.184;9.280;2023-04-24T09:15:42;28.40;32.10
15172;DHT22;7686;52.184;9.280;2023-04-24T09:18:09;28.40;32.00
15172;DHT22;7686;52.184;9.280;2023-04-24T09:23:29;28.30;32.10
15172;DHT22;7686;52.184;9.280;2023-04-24T09:25:57;28.30;32.00
15172;DHT22;7686;52.184;9.280;2023-04-24T09:28:31;28.40;32.00
15172;DHT22;7686;52.184;9.280;2023-04-24T09:31:13;28.40;32.00
15172;DHT22;7686;52.184;9.280;2023-04-24T09:33:55;28.30;31.90
15172;DHT22;7686;52.184;9.280;2023-04-24T09:36:30;28.30;32.70
15172;DHT22;7686;52.184;9.280;2023-04-24T09:39:01;28.40;32.00
15172;DHT22;7686;52.184;9.280;2023-04-24T09:41:28;28.40;32.00
15172;DHT22;7686;52.184;9.280;2023-04-24T09:43:55;28.40;32.00
15172;DHT22;7686;52.184;9.280;2023-04-24T09:46:29;28.40;32.10
15172;DHT22;7686;52.184;9.280;2023-04-24T09:48:57;28.40;32.00
15172;DHT22;7686;52.184;9.280;2023-04-24T09:51:34;28.30;31.90
15172;DHT22;7686;52.184;9.280;2023-04-24T09:54:04;28.40;31.90
15172;DHT22;7686;52.184;9.280;2023-04-24T09:56:34;28.50;32.00
15172;DHT22;7686;52.184;9.280;2023-04-24T09:59:06;28.50;31.80
15172;DHT22;7686;52.184;9.280;2023-04-24T10:01:34;28.50;31.80
15172;DHT22;7686;52.184;9.280;2023-04-24T10:04:01;28.50;31.80
15172;DHT22;7686;52.184;9.280;2023-04-24T10:06:34;28.60;31.80
15172;DHT22;7686;52.184;9.280;2023-04-24T10:09:02;28.60;31.70
15172;DHT22;7686;52.184;9.280;2023-04-24T10:11:30;28.60;31.80
15172;DHT22;7686;52.184;9.280;2023-04-24T10:13:57;28.60;31.70
15172;DHT22;7686;52.184;9.280;2023-04-24T10:16:25;28.60;31.70
15172;DHT22;7686;52.184;9.280;2023-04-24T10:18:54;28.60;31.70
15172;DHT22;7686;52.184;9.280;2023-04-24T10:21:21;28.70;31.70
15172;DHT22;7686;52.184;9.280;2023-04-24T10:23:49;28.70;31.70
15172;DHT22;7686;52.184;9.280;2023-04-24T10:26:17;28.70;31.70
15172;DHT22;7686;52.184;9.280;2023-04-24T10:28:45;28.70;31.60
15172;DHT22;7686;52.184;9.280;2023-04-24T10:31:14;28.70;31.60
15172;DHT22;7686;52.184;9.280;2023-04-24T10:33:42;28.70;31.50
15172;DHT22;7686;52.184;9.280;2023-04-24T10:36:10;28.70;31.60
15172;DHT22;7686;52.184;9.280;2023-04-24T10:38:40;28.80;31.50
15172;DHT22;7686;52.184;9.280;2023-04-24T10:41:12;28.70;31.40
15172;DHT22;7686;52.184;9.280;2023-04-24T10:44:04;28.70;31.40
15172;DHT22;7686;52.184;9.280;2023-04-24T10:46:32;28.80;31.50
15172;DHT22;7686;52.184;9.280;2023-04-24T10:48:58;28.80;31.50
15172;DHT22;7686;52.184;9.280;2023-04-24T10:54:25;28.80;31.40
15172;DHT22;7686;52.184;9.280;2023-04-24T10:56:53;28.80;31.30
15172;DHT22;7686;52.184;9.280;2023-04-24T10:59:27;28.80;31.30
15172;DHT22;7686;52.184;9.280;2023-04-24T11:01:54;28.80;31.30
15172;DHT22;7686;52.184;9.280;2023-04-24T11:04:32;28.80;31.30
15172;DHT22;7686;52.184;9.280;2023-04-24T11:06:59;28.90;31.30
15172;DHT22;7686;52.184;9.280;2023-04-24T11:09:27;28.90;31.30
15172;DHT22;7686;52.184;9.280;2023-04-24T11:12:08;28.90;31.20
15172;DHT22;7686;52.184;9.280;2023-04-24T11:17:33;28.90;31.20
15172;DHT22;7686;52.184;9.280;2023-04-24T11:20:08;28.90;31.20
15172;DHT22;7686;52.184;9.280;2023-04-24T11:22:54;28.90;31.10
15172;DHT22;7686;52.184;9.280;2023-04-24T11:25:22;29.00;31.20
15172;DHT22;7686;52.184;9.280;2023-04-24T11:27:49;28.90;31.20
15172;DHT22;7686;52.184;9.280;2023-04-24T11:30:20;29.00;31.20
15172;DHT22;7686;52.184;9.280;2023-04-24T11:32:53;29.00;31.20
15172;DHT22;7686;52.184;9.280;2023-04-24T11:35:20;29.00;31.10
15172;DHT22;7686;52.184;9.280;2023-04-24T11:37:49;29.00;31.10
15172;DHT22;7686;52.184;9.280;2023-04-24T11:40:37;28.90;31.10
15172;DHT22;7686;52.184;9.280;2023-04-24T11:43:06;29.00;31.10
15172;DHT22;7686;52.184;9.280;2023-04-24T11:45:34;29.00;31.10
15172;DHT22;7686;52.184;9.280;2023-04-24T11:48:03;29.00;31.10
15172;DHT22;7686;52.184;9.280;2023-04-24T11:50:30;29.00;31.00
15172;DHT22;7686;52.184;9.280;2023-04-24T11:52:57;29.00;31.10
15172;DHT22;7686;52.184;9.280;2023-04-24T11:55:26;29.00;31.10
15172;DHT22;7686;52.184;9.280;2023-04-24T11:57:58;29.00;31.00
15172;DHT22;7686;52.184;9.280;2023-04-24T12:00:28;29.00;31.00
15172;DHT22;7686;52.184;9.280;2023-04-24T12:03:08;29.00;31.00
15172;DHT22;7686;52.184;9.280;2023-04-24T12:05:35;29.00;31.20
15172;DHT22;7686;52.184;9.280;2023-04-24T12:08:02;29.00;31.20
15172;DHT22;7686;52.184;9.280;2023-04-24T12:10:30;29.00;31.30
15172;DHT22;7686;52.184;9.280;2023-04-24T12:12:58;29.10;31.50
15172;DHT22;7686;52.184;9.280;2023-04-24T12:15:26;29.00;31.40
15172;DHT22;7686;52.184;9.280;2023-04-24T12:17:54;29.00;31.40
15172;DHT22;7686;52.184;9.280;2023-04-24T12:20:29;29.00;31.40
15172;DHT22;7686;52.184;9.280;2023-04-24T12:22:57;29.00;31.30
15172;DHT22;7686;52.184;9.280;2023-04-24T12:25:26;29.00;31.30
15172;DHT22;7686;52.184;9.280;2023-04-24T12:30:34;29.00;31.40
15172;DHT22;7686;52.184;9.280;2023-04-24T12:33:02;29.10;31.50
15172;DHT22;7686;52.184;9.280;2023-04-24T12:35:31;29.10;31.60
15172;DHT22;7686;52.184;9.280;2023-04-24T12:38:06;29.10;31.60
15172;DHT22;7686;52.184;9.280;2023-04-24T12:40:34;29.00;31.70
15172;DHT22;7686;52.184;9.280;2023-04-24T12:43:01;29.10;31.80
15172;DHT22;7686;52.184;9.280;2023-04-24T12:45:27;29.10;32.00
15172;DHT22;7686;52.184;9.280;2023-04-24T12:47:54;29.10;32.00
15172;DHT22;7686;52.184;9.280;2023-04-24T12:50:21;29.00;32.00
15172;DHT22;7686;52.184;9.280;2023-04-24T12:52:47;29.00;32.00
15172;DHT22;7686;52.184;9.280;2023-04-24T12:55:14;29.00;32.10
15172;DHT22;7686;52.184;9.280;2023-04-24T12:57:40;29.00;32.10
15172;DHT22;7686;52.184;9.280;2023-04-24T13:00:08;29.10;32.20
15172;DHT22;7686;52.184;9.280;2023-04-24T13:02:35;29.00;32.10
15172;DHT22;7686;52.184;9.280;2023-04-24T13:05:03;29.00;32.10
15172;DHT22;7686;52.184;9.280;2023-04-24T13:07:29;29.00;32.10
15172;DHT22;7686;52.184;9.280;2023-04-24T13:09:56;29.00;32.20
15172;DHT22;7686;52.184;9.280;2023-04-24T13:12:24;29.10;32.20
15172;DHT22;7686;52.184;9.280;2023-04-24T13:14:52;29.00;32.20
15172;DHT22;7686;52.184;9.280;2023-04-24T13:17:19;29.00;32.20
15172;DHT22;7686;52.184;9.280;2023-04-24T13:19:46;29.00;32.20
15172;DHT22;7686;52.184;9.280;2023-04-24T13:22:13;29.00;32.20
15172;DHT22;7686;52.184;9.280;2023-04-24T13:24:40;29.00;32.20
15172;DHT22;7686;52.184;9.280;2023-04-24T13:27:08;29.00;32.30
15172;DHT22;7686;52.184;9.280;2023-04-24T13:29:36;29.00;32.30
15172;DHT22;7686;52.184;9.280;2023-04-24T13:32:03;29.00;32.30
15172;DHT22;7686;52.184;9.280;2023-04-24T13:34:29;29.00;32.30
15172;DHT22;7686;52.184;9.280;2023-04-24T13:36:57;29.00;32.40
15172;DHT22;7686;52.184;9.280;2023-04-24T13:39:25;29.00;33.20
15172;DHT22;7686;52.184;9.280;2023-04-24T13:41:53;29.00;32.50
15172;DHT22;7686;52.184;9.280;2023-04-24T13:44:20;29.00;32.50
15172;DHT22;7686;52.184;9.280;2023-04-24T13:46:50;29.00;32.50
15172;DHT22;7686;52.184;9.280;2023-04-24T13:49:18;29.00;32.60
15172;DHT22;7686;52.184;9.280;2023-04-24T13:51:45;29.00;32.50
15172;DHT22;7686;52.184;9.280;2023-04-24T13:54:12;29.00;32.50
15172;DHT22;7686;52.184;9.280;2023-04-24T13:56:40;29.00;32.50
15172;DHT22;7686;52.184;9.280;2023-04-24T13:59:06;29.00;32.50
15172;DHT22;7686;52.184;9.280;2023-04-24T14:01:33;29.00;32.50
15172;DHT22;7686;52.184;9.280;2023-04-24T14:04:00;29.00;32.50
15172;DHT22;7686;52.184;9.280;2023-04-24T14:06:27;29.00;32.40
15172;DHT22;7686;52.184;9.280;2023-04-24T14:08:54;29.00;32.40
15172;DHT22;7686;52.184;9.280;2023-04-24T14:11:20;28.90;32.40
15172;DHT22;7686;52.184;9.280;2023-04-24T14:13:47;29.00;32.40
15172;DHT22;7686;52.184;9.280;2023-04-24T14:16:14;28.90;32.40
15172;DHT22;7686;52.184;9.280;2023-04-24T14:18:41;29.00;32.40
15172;DHT22;7686;52.184;9.280;2023-04-24T14:21:07;28.90;32.40
15172;DHT22;7686;52.184;9.280;2023-04-24T14:23:34;28.90;32.30
15172;DHT22;7686;52.184;9.280;2023-04-24T14:26:01;28.90;32.40
15172;DHT22;7686;52.184;9.280;2023-04-24T14:28:27;28.90;32.30
15172;DHT22;7686;52.184;9.280;2023-04-24T14:30:54;28.90;32.40
15172;DHT22;7686;52.184;9.280;2023-04-24T14:33:21;28.90;32.30
15172;DHT22;7686;52.184;9.280;2023-04-24T14:35:47;28.90;32.30
15172;DHT22;7686;52.184;9.280;2023-04-24T14:38:14;28.80;32.30
15172;DHT22;7686;52.184;9.280;2023-04-24T14:40:42;28.80;32.30
15172;DHT22;7686;52.184;9.280;2023-04-24T14:43:11;28.90;32.30
15172;DHT22;7686;52.184;9.280;2023-04-24T14:45:38;28.80;32.30
15172;DHT22;7686;52.184;9.280;2023-04-24T14:48:06;28.80;32.30
15172;DHT22;7686;52.184;9.280;2023-04-24T14:50:34;28.70;32.40
15172;DHT22;7686;52.184;9.280;2023-04-24T14:53:01;28.70;32.40
15172;DHT22;7686;52.184;9.280;2023-04-24T14:55:28;28.70;32.40
15172;DHT22;7686;52.184;9.280;2023-04-24T14:57:55;28.60;32.30
15172;DHT22;7686;52.184;9.280;2023-04-24T15:00:22;28.60;32.40
15172;DHT22;7686;52.184;9.280;2023-04-24T15:02:50;28.60;32.40
15172;DHT22;7686;52.184;9.280;2023-04-24T15:05:17;28.50;32.40
15172;DHT22;7686;52.184;9.280;2023-04-24T15:07:44;28.60;32.50
15172;DHT22;7686;52.184;9.280;2023-04-24T15:10:11;28.50;32.50
15172;DHT22;7686;52.184;9.280;2023-04-24T15:12:38;28.50;32.60
15172;DHT22;7686;52.184;9.280;2023-04-24T15:15:05;28.50;32.60
15172;DHT22;7686;52.184;9.280;2023-04-24T15:17:32;28.50;32.70
15172;DHT22;7686;52.184;9.280;2023-04-24T15:19:59;28.40;32.70
15172;DHT22;7686;52.184;9.280;2023-04-24T15:22:27;28.40;32.80
15172;DHT22;7686;52.184;9.280;2023-04-24T15:24:54;28.40;32.80
15172;DHT22;7686;52.184;9.280;2023-04-24T15:27:20;28.40;33.50
15172;DHT22;7686;52.184;9.280;2023-04-24T15:29:47;28.30;32.80
15172;DHT22;7686;52.184;9.280;2023-04-24T15:32:14;28.30;32.80
15172;DHT22;7686;52.184;9.280;2023-04-24T15:34:40;28.30;32.80
15172;DHT22;7686;52.184;9.280;2023-04-24T15:37:07;28.30;32.90
15172;DHT22;7686;52.184;9.280;2023-04-24T15:39:34;28.30;33.00
15172;DHT22;7686;52.184;9.280;2023-04-24T15:42:00;28.20;32.80
15172;DHT22;7686;52.184;9.280;2023-04-24T15:44:27;28.20;32.90
15172;DHT22;7686;52.184;9.280;2023-04-24T15:46:54;28.10;32.80
15172;DHT22;7686;52.184;9.280;2023-04-24T15:49:21;28.20;32.90
15172;DHT22;7686;52.184;9.280;2023-04-24T15:51:48;28.20;32.90
15172;DHT22;7686;52.184;9.280;2023-04-24T15:54:14;28.10;32.90
15172;DHT22;7686;52.184;9.280;2023-04-24T15:56:41;28.10;32.90
15172;DHT22;7686;52.184;9.280;2023-04-24T15:59:08;28.10;33.00